ELNO2: N. Canadian River, El Reno, OK

Data processed at Thu Jan 04 2018 23:24


All information presented herein is the property of the government of the United States of America and may be revised or deleted at any time without prior notice.
Dissemination of this information without the expressed written consent of the Public Affairs Office, Tulsa District U.S. Army Corps of Engineers is strictly prohibited.
These data are gathered electronically and, as presented, have not undergone any form of quality control. These data are not guaranteed to be valid or correct.
Go to home page.
Go to station list.

Upstream stations:

Downstream station:
Previous Day
Next Day
Current Day
    
SHEF ID:       ELNO2     North Canadian River near El Ren
STATION TYPE:  

               PRECIP     STAGE  STAGE(2)  RIV-FLOW  WTR-TEMP   CONDUCT  BAT-LOAD
                   in        ft        ft       cfs         F   umho/cm      volt
              Ccp-Rev   Ccp-Rev   Ccp-Rev   Ccp-Rev   Ccp-Rev   Ccp-Rev   Ccp-Rev
(US/Central)
01/02 00:00      0.00      3.92      ----        64     31.50      1702     12.57
01/02 01:00      0.00      3.95      ----        67     31.51      1693     12.49
01/02 02:00      0.00     37.80      ----      ----     31.51      1683     12.49
01/02 03:00      0.00     37.80      ----      ----     31.51      1676     12.41
01/02 04:00      0.00      3.90      ----        62     31.51      1684     12.41
01/02 05:00      0.00      3.94      ----        66     31.51      1690     12.41
01/02 06:00      0.00      3.95      ----        67     31.51      1692     12.41
01/02 07:00      0.00      3.94      ----        66     31.51      1700     12.41
01/02 08:00      0.00      3.94      ----        66     31.51      1703     12.41
01/02 09:00      0.00     37.80      ----      ----     31.51      1711     12.41
01/02 10:00      0.00     37.80      ----      ----     31.53      1728     12.49
01/02 11:00      0.00     37.80      ----      ----     31.53      1732     12.97
01/02 12:00      0.00     37.80      ----      ----     31.57      1724     13.29
01/02 13:00      0.00      4.07      ----        80     31.57      1718     13.29
01/02 14:00      0.00      4.07      ----        80     31.59      1720     13.29
01/02 15:00      0.00      4.08      ----        81     31.60      1731     13.29
01/02 16:00      0.00      4.07      ----        80     31.62      1726     13.21
01/02 17:00      0.00      4.16      ----        90     31.59      1722     13.05
01/02 18:00      0.00      4.16      ----        90     31.53      1715     12.81
01/02 19:00      0.00      4.16      ----        90     31.51      1697     12.73
01/02 20:00      0.00      4.17      ----        91     31.50      1703     12.65
01/02 21:00      0.00      4.18      ----        92     31.51      1701     12.65
01/02 22:00      0.00     37.80      ----      ----     31.51      1703     12.57
01/02 23:00      0.00     37.80      ----      ----     31.51      1706     12.57